createdAt,value
2022-10-19T00:02:17.872Z,47.90
2022-10-19T00:04:44.608Z,43.15
2022-10-19T00:07:11.009Z,49.20
2022-10-19T00:09:37.424Z,48.10
2022-10-19T00:12:03.978Z,46.05
2022-10-19T00:14:30.429Z,54.47
2022-10-19T00:16:58.088Z,54.40
2022-10-19T00:19:26.829Z,49.45
2022-10-19T00:21:53.822Z,46.60
2022-10-19T00:24:20.637Z,42.90
2022-10-19T00:26:47.580Z,46.78
2022-10-19T00:29:15.353Z,43.38
2022-10-19T00:31:41.996Z,43.53
2022-10-19T00:34:08.702Z,39.33
2022-10-19T00:36:38.768Z,55.63
2022-10-19T00:39:06.995Z,54.13
2022-10-19T00:41:35.836Z,49.30
2022-10-19T00:44:02.245Z,44.75
2022-10-19T00:46:31.937Z,55.22
2022-10-19T00:49:29.881Z,51.97
2022-10-19T00:52:10.555Z,59.10
2022-10-19T00:54:40.987Z,50.95
2022-10-19T00:57:08.752Z,49.05
2022-10-19T00:59:36.706Z,48.08
2022-10-19T01:02:04.587Z,52.80
2022-10-19T01:04:34.560Z,50.47
2022-10-19T01:07:03.569Z,47.67
2022-10-19T01:09:29.973Z,46.60
2022-10-19T01:12:21.151Z,57.00
2022-10-19T01:15:15.418Z,53.03
2022-10-19T01:18:01.681Z,48.08
2022-10-19T01:20:56.078Z,58.72
2022-10-19T01:24:04.641Z,49.67
2022-10-19T01:27:08.341Z,52.47
2022-10-19T01:29:59.521Z,53.92
2022-10-19T01:32:53.309Z,50.13
2022-10-19T01:35:33.022Z,46.75
2022-10-19T01:38:05.660Z,44.90
2022-10-19T01:40:57.037Z,54.65
2022-10-19T01:46:11.132Z,49.72
2022-10-19T01:48:41.453Z,51.47
2022-10-19T01:51:19.452Z,54.43
2022-10-19T01:53:52.869Z,50.28
2022-10-19T01:56:23.967Z,53.80
2022-10-19T01:58:53.001Z,58.53
2022-10-19T02:01:23.926Z,49.92
2022-10-19T02:03:52.989Z,57.55
2022-10-19T02:06:20.656Z,70.03
2022-10-19T02:08:49.574Z,62.58
2022-10-19T02:11:17.082Z,64.25
2022-10-19T02:13:45.359Z,60.50
2022-10-19T02:16:27.382Z,57.10
2022-10-19T02:18:55.755Z,61.85
2022-10-19T02:21:22.507Z,63.80
2022-10-19T02:23:51.804Z,57.65
2022-10-19T02:26:21.501Z,57.25
2022-10-19T02:28:48.777Z,48.10
2022-10-19T02:31:15.345Z,48.63
2022-10-19T02:33:41.816Z,51.88
2022-10-19T02:36:08.457Z,50.88
2022-10-19T02:38:35.076Z,51.95
2022-10-19T02:41:08.055Z,46.72
2022-10-19T02:43:38.847Z,49.53
2022-10-19T02:46:23.218Z,43.63
2022-10-19T02:48:51.699Z,49.63
2022-10-19T02:51:36.710Z,43.22
2022-10-19T02:54:05.393Z,42.17
2022-10-19T02:56:33.363Z,46.58
2022-10-19T02:59:00.155Z,47.60
2022-10-19T03:01:26.682Z,48.03
2022-10-19T03:03:53.205Z,48.05
2022-10-19T03:06:19.921Z,44.45
2022-10-19T03:08:46.609Z,48.17
2022-10-19T03:11:13.051Z,43.88
2022-10-19T03:13:41.527Z,44.45
2022-10-19T03:16:10.033Z,40.47
2022-10-19T03:18:36.538Z,49.05
2022-10-19T03:21:08.151Z,44.40
2022-10-19T03:23:35.440Z,50.40
2022-10-19T03:26:02.320Z,48.40
2022-10-19T03:28:29.896Z,44.50
2022-10-19T03:30:56.918Z,44.78
2022-10-19T03:36:15.195Z,40.67
2022-10-19T03:38:41.694Z,47.55
2022-10-19T03:41:08.852Z,44.25
2022-10-19T03:43:35.636Z,41.47
2022-10-19T03:46:02.153Z,49.17
2022-10-19T03:48:28.715Z,45.97
2022-10-19T03:51:10.476Z,41.85
2022-10-19T03:53:37.617Z,46.88
2022-10-19T03:56:06.494Z,41.50
2022-10-19T03:58:34.460Z,39.17
2022-10-19T04:01:01.406Z,49.13
2022-10-19T04:03:28.101Z,42.03
2022-10-19T04:06:02.267Z,41.25
2022-10-19T04:08:28.727Z,44.47
2022-10-19T04:11:03.440Z,46.00
2022-10-19T04:13:30.340Z,45.78
2022-10-19T04:15:57.212Z,47.78
2022-10-19T04:18:23.717Z,42.88
2022-10-19T04:20:56.768Z,42.22
2022-10-19T04:23:23.806Z,45.20
2022-10-19T04:25:50.445Z,34.97
2022-10-19T04:28:16.851Z,43.15
2022-10-19T04:30:43.273Z,39.28
2022-10-19T04:33:09.748Z,41.72
2022-10-19T04:35:36.155Z,40.58
2022-10-19T04:38:02.653Z,40.10
2022-10-19T04:40:29.076Z,38.25
2022-10-19T04:42:55.472Z,38.95
2022-10-19T04:45:21.863Z,37.35
2022-10-19T04:47:48.249Z,34.55
2022-10-19T04:50:14.661Z,46.65
2022-10-19T04:52:41.084Z,36.03
2022-10-19T04:55:07.850Z,40.83
2022-10-19T04:57:34.626Z,36.35
2022-10-19T05:00:01.418Z,36.35
2022-10-19T05:02:27.801Z,43.35
2022-10-19T05:04:54.207Z,38.97
2022-10-19T05:07:20.614Z,40.58
2022-10-19T05:09:47.029Z,36.42
2022-10-19T05:12:13.416Z,41.28
2022-10-19T05:14:42.640Z,42.40
2022-10-19T05:17:09.611Z,41.83
2022-10-19T05:19:36.041Z,40.92
2022-10-19T05:22:02.444Z,40.92
2022-10-19T05:24:28.868Z,47.50
2022-10-19T05:26:55.336Z,40.47
2022-10-19T05:29:21.774Z,45.85
2022-10-19T05:31:48.243Z,38.80
2022-10-19T05:34:14.693Z,37.38
2022-10-19T05:36:41.175Z,40.28
2022-10-19T05:39:16.553Z,41.53
2022-10-19T05:41:44.925Z,41.72
2022-10-19T05:44:17.369Z,37.60
2022-10-19T05:46:44.091Z,42.90
2022-10-19T05:49:12.260Z,44.38
2022-10-19T05:51:39.240Z,43.85
2022-10-19T05:54:05.854Z,45.15
2022-10-19T05:56:32.824Z,37.00
2022-10-19T05:59:02.598Z,36.92
2022-10-19T06:01:29.899Z,44.20
2022-10-19T06:03:58.002Z,40.72
2022-10-19T06:06:25.752Z,37.20
2022-10-19T06:08:53.595Z,41.80
2022-10-19T06:11:26.334Z,40.22
2022-10-19T06:13:55.760Z,40.13
2022-10-19T06:16:24.005Z,39.88
2022-10-19T06:18:50.907Z,38.97
2022-10-19T06:21:20.161Z,38.72
2022-10-19T06:23:58.280Z,35.75
2022-10-19T06:26:25.429Z,42.40
2022-10-19T06:28:55.635Z,37.05
2022-10-19T06:31:22.153Z,34.60
2022-10-19T06:33:49.617Z,33.50
2022-10-19T06:36:22.055Z,31.40
2022-10-19T06:38:49.219Z,30.67
2022-10-19T06:41:16.075Z,28.83
2022-10-19T06:43:43.465Z,29.50
2022-10-19T06:46:17.590Z,34.85
2022-10-19T06:48:44.106Z,30.58
2022-10-19T06:51:11.917Z,35.97
2022-10-19T06:53:38.322Z,37.00
2022-10-19T06:56:06.535Z,32.58
2022-10-19T06:58:36.994Z,33.13
2022-10-19T07:01:04.790Z,31.13
2022-10-19T07:03:31.258Z,39.90
2022-10-19T07:06:00.821Z,33.05
2022-10-19T07:08:29.502Z,39.25
2022-10-19T07:10:58.751Z,41.58
2022-10-19T07:13:27.072Z,39.35
2022-10-19T07:16:06.643Z,43.72
2022-10-19T07:18:35.341Z,40.08
2022-10-19T07:21:03.642Z,41.17
2022-10-19T07:23:33.648Z,38.05
2022-10-19T07:26:07.492Z,41.92
2022-10-19T07:28:34.379Z,41.50
2022-10-19T07:31:08.714Z,41.30
2022-10-19T07:33:35.911Z,45.40
2022-10-19T07:36:05.938Z,44.50
2022-10-19T07:38:33.481Z,39.00
2022-10-19T07:41:20.333Z,39.22
2022-10-19T07:43:48.531Z,44.67
2022-10-19T07:46:19.982Z,47.20
2022-10-19T07:48:47.089Z,42.40
2022-10-19T07:51:15.000Z,48.28
2022-10-19T07:53:42.559Z,43.85
2022-10-19T07:56:11.807Z,44.03
2022-10-19T07:58:38.747Z,46.15
2022-10-19T08:01:06.490Z,46.63
2022-10-19T08:06:22.042Z,53.13
2022-10-19T08:08:48.970Z,53.50
2022-10-19T08:11:19.421Z,49.90
2022-10-19T08:13:46.353Z,53.15
2022-10-19T08:16:27.042Z,48.45
2022-10-19T08:18:57.265Z,48.88
2022-10-19T08:21:24.406Z,52.73
2022-10-19T08:23:50.814Z,55.00
2022-10-19T08:26:17.245Z,58.65
2022-10-19T08:28:43.726Z,54.67
2022-10-19T08:31:18.302Z,63.63
2022-10-19T08:33:45.158Z,55.97
2022-10-19T08:36:13.311Z,60.95
2022-10-19T08:38:41.364Z,71.00
2022-10-19T08:41:21.013Z,66.85
2022-10-19T08:44:18.438Z,58.60
2022-10-19T08:47:17.525Z,64.13
2022-10-19T08:49:46.323Z,61.00
2022-10-19T08:52:18.860Z,71.65
2022-10-19T08:55:19.793Z,61.25
2022-10-19T08:57:53.362Z,56.03
2022-10-19T09:00:43.431Z,59.70
2022-10-19T09:03:43.976Z,53.20
2022-10-19T09:06:31.958Z,50.45
2022-10-19T09:08:59.108Z,49.00
2022-10-19T09:11:31.251Z,61.88
2022-10-19T09:14:31.698Z,54.40
2022-10-19T09:17:02.479Z,53.70
2022-10-19T09:19:31.862Z,42.80
2022-10-19T09:22:03.783Z,48.70
2022-10-19T09:24:49.202Z,49.00
2022-10-19T09:27:24.308Z,53.03
2022-10-19T09:30:00.453Z,48.00
2022-10-19T09:32:33.056Z,47.60
2022-10-19T09:35:08.124Z,57.22
2022-10-19T09:37:44.151Z,47.90
2022-10-19T09:40:26.801Z,38.58
2022-10-19T09:43:13.321Z,43.13
2022-10-19T09:45:48.704Z,41.67
2022-10-19T09:48:30.907Z,43.05
2022-10-19T09:51:02.494Z,39.08
2022-10-19T09:53:30.208Z,42.75
2022-10-19T09:56:04.455Z,39.47
2022-10-19T09:58:33.087Z,40.17
2022-10-19T10:01:01.106Z,36.70
2022-10-19T10:03:40.405Z,37.63
2022-10-19T10:06:10.373Z,41.22
2022-10-19T10:08:45.046Z,43.53
2022-10-19T10:11:14.522Z,37.63
2022-10-19T10:13:50.714Z,37.92
2022-10-19T10:16:21.006Z,38.78
2022-10-19T10:18:56.816Z,36.72
2022-10-19T10:21:26.486Z,39.63
2022-10-19T10:24:29.204Z,43.22
2022-10-19T10:26:58.653Z,42.65
2022-10-19T10:29:33.772Z,34.17
2022-10-19T10:32:19.805Z,42.10
2022-10-19T10:34:57.286Z,39.50
2022-10-19T10:37:47.269Z,39.40
2022-10-19T10:40:31.170Z,39.90
2022-10-19T10:43:09.426Z,38.42
2022-10-19T10:45:42.613Z,40.85
2022-10-19T10:48:33.101Z,38.90
2022-10-19T10:51:01.133Z,42.60
2022-10-19T10:53:39.855Z,42.13
2022-10-19T10:56:22.173Z,50.95
2022-10-19T10:59:04.817Z,43.88
2022-10-19T11:01:40.012Z,50.55
2022-10-19T11:04:19.764Z,47.67
2022-10-19T11:06:54.020Z,42.00
2022-10-19T11:09:34.504Z,47.63
2022-10-19T11:12:05.102Z,47.03
2022-10-19T11:14:52.230Z,47.95
2022-10-19T11:17:23.027Z,45.33
2022-10-19T11:19:53.612Z,40.10
2022-10-19T11:22:27.103Z,43.33
2022-10-19T11:24:53.662Z,49.85
2022-10-19T11:27:28.848Z,47.75
2022-10-19T11:30:14.239Z,45.90
2022-10-19T11:33:14.737Z,45.15
2022-10-19T11:35:52.887Z,42.17
2022-10-19T11:38:44.350Z,41.78
2022-10-19T11:41:39.166Z,44.83
2022-10-19T11:44:20.874Z,46.10
2022-10-19T11:46:57.312Z,44.42
2022-10-19T11:49:44.894Z,46.10
2022-10-19T11:52:27.782Z,48.55
2022-10-19T11:54:59.806Z,45.85
2022-10-19T11:57:31.079Z,47.20
2022-10-19T12:00:15.098Z,49.80
2022-10-19T12:03:17.240Z,57.90
2022-10-19T12:06:23.738Z,50.75
2022-10-19T12:08:56.401Z,48.67
2022-10-19T12:11:57.633Z,50.08
2022-10-19T12:16:57.793Z,42.67
2022-10-19T12:19:28.725Z,66.38
2022-10-19T12:24:26.309Z,55.10
2022-10-19T12:26:54.781Z,47.05
2022-10-19T12:29:29.519Z,50.05
2022-10-19T12:31:57.682Z,44.97
2022-10-19T12:34:36.119Z,46.38
2022-10-19T12:37:29.109Z,47.30
2022-10-19T12:40:18.496Z,49.83
2022-10-19T12:42:44.809Z,49.10
2022-10-19T12:45:23.751Z,45.83
2022-10-19T12:48:08.523Z,50.35
2022-10-19T12:50:50.343Z,43.25
2022-10-19T12:53:40.437Z,41.67
2022-10-19T12:56:09.643Z,48.53
2022-10-19T12:58:47.704Z,45.22
2022-10-19T13:01:28.433Z,43.38
2022-10-19T13:04:09.397Z,46.50
2022-10-19T13:06:42.782Z,45.55
2022-10-19T13:09:23.405Z,44.03
2022-10-19T13:12:17.827Z,48.67
2022-10-19T13:14:52.366Z,44.58
2022-10-19T13:17:34.415Z,41.60
2022-10-19T13:20:19.159Z,43.40
2022-10-19T13:22:49.671Z,49.45
2022-10-19T13:25:16.081Z,48.03
2022-10-19T13:27:43.968Z,44.25
2022-10-19T13:30:35.259Z,42.58
2022-10-19T13:33:24.608Z,48.25
2022-10-19T13:36:07.679Z,48.42
2022-10-19T13:38:40.012Z,46.03
2022-10-19T13:41:26.346Z,48.95
2022-10-19T13:43:52.743Z,49.30
2022-10-19T13:46:31.152Z,42.60
2022-10-19T13:49:15.905Z,42.10
2022-10-19T13:52:03.848Z,46.35
2022-10-19T13:55:18.662Z,46.38
2022-10-19T13:58:03.713Z,40.88
2022-10-19T14:00:57.776Z,66.97
2022-10-19T14:03:58.320Z,41.70
2022-10-19T14:06:32.924Z,40.75
2022-10-19T14:09:20.819Z,46.55
2022-10-19T14:11:51.263Z,46.33
2022-10-19T14:14:20.733Z,43.70
2022-10-19T14:16:56.012Z,45.00
2022-10-19T14:19:30.394Z,41.50
2022-10-19T14:21:59.354Z,47.50
2022-10-19T14:24:35.269Z,38.08
2022-10-19T14:27:06.914Z,49.05
2022-10-19T14:29:43.058Z,45.80
2022-10-19T14:32:11.232Z,48.25
2022-10-19T14:34:46.146Z,41.22
2022-10-19T14:37:33.130Z,45.40
2022-10-19T14:40:35.760Z,45.25
2022-10-19T14:43:19.993Z,46.47
2022-10-19T14:46:03.787Z,47.15
2022-10-19T14:48:30.282Z,50.33
2022-10-19T14:50:57.796Z,50.83
2022-10-19T14:53:48.819Z,47.40
2022-10-19T14:56:32.785Z,50.08
2022-10-19T14:59:07.490Z,45.50
2022-10-19T15:01:35.166Z,48.45
2022-10-19T15:04:01.873Z,45.97
2022-10-19T15:06:31.722Z,51.75
2022-10-19T15:09:02.592Z,43.13
2022-10-19T15:11:28.971Z,45.83
2022-10-19T15:14:00.213Z,44.10
2022-10-19T15:16:49.884Z,44.63
2022-10-19T15:19:36.513Z,46.28
2022-10-19T15:22:08.960Z,46.58
2022-10-19T15:24:36.665Z,58.55
2022-10-19T15:27:29.419Z,45.25
2022-10-19T15:29:57.697Z,44.92
2022-10-19T15:32:29.463Z,43.83
2022-10-19T15:34:55.932Z,50.30
2022-10-19T15:37:24.070Z,41.67
2022-10-19T15:39:52.411Z,46.88
2022-10-19T15:42:22.969Z,50.33
2022-10-19T15:44:49.514Z,43.67
2022-10-19T15:47:16.065Z,51.22
2022-10-19T15:49:42.508Z,47.33
2022-10-19T15:52:16.430Z,55.40
2022-10-19T15:54:42.959Z,50.53
2022-10-19T15:57:35.185Z,45.35
2022-10-19T16:00:12.165Z,41.40
2022-10-19T16:02:39.142Z,44.25
2022-10-19T16:07:37.646Z,51.95
2022-10-19T16:10:05.440Z,51.00
2022-10-19T16:12:31.938Z,49.28
2022-10-19T16:14:58.467Z,55.03
2022-10-19T16:17:24.980Z,54.10
2022-10-19T16:19:51.525Z,48.10
2022-10-19T16:22:17.973Z,47.40
2022-10-19T16:24:44.391Z,49.20
2022-10-19T16:27:15.038Z,54.50
2022-10-19T16:29:42.934Z,45.53
2022-10-19T16:32:09.520Z,49.40
2022-10-19T16:34:35.989Z,61.25
2022-10-19T16:37:05.744Z,51.50
2022-10-19T16:39:33.600Z,45.25
2022-10-19T16:42:00.335Z,46.90
2022-10-19T16:44:26.853Z,42.30
2022-10-19T16:46:55.441Z,44.80
2022-10-19T16:49:21.890Z,45.95
2022-10-19T16:51:49.976Z,47.47
2022-10-19T16:54:18.874Z,48.95
2022-10-19T16:56:46.827Z,39.83
2022-10-19T16:59:16.423Z,39.47
2022-10-19T17:01:45.565Z,42.97
2022-10-19T17:04:13.242Z,47.53
2022-10-19T17:06:40.619Z,49.13
2022-10-19T17:11:54.434Z,46.40
2022-10-19T17:14:20.887Z,59.70
2022-10-19T17:16:47.359Z,56.08
2022-10-19T17:19:13.870Z,54.45
2022-10-19T17:21:42.215Z,53.47
2022-10-19T17:24:18.679Z,58.75
2022-10-19T17:26:48.807Z,59.53
2022-10-19T17:29:15.241Z,51.50
2022-10-19T17:31:42.259Z,54.38
2022-10-19T17:34:09.757Z,49.88
2022-10-19T17:39:18.893Z,60.55
2022-10-19T17:41:47.045Z,50.47
2022-10-19T17:44:14.075Z,53.53
2022-10-19T17:46:40.544Z,56.42
2022-10-19T17:49:07.215Z,51.03
2022-10-19T17:51:35.920Z,58.10
2022-10-19T17:54:05.337Z,64.07
2022-10-19T17:56:31.780Z,67.03
2022-10-19T17:58:58.644Z,66.97
2022-10-19T18:01:25.735Z,62.53
2022-10-19T18:03:52.522Z,60.92
2022-10-19T18:06:20.821Z,60.53
2022-10-19T18:08:49.526Z,62.28
2022-10-19T18:11:21.985Z,67.55
2022-10-19T18:13:50.562Z,64.88
2022-10-19T18:16:29.446Z,65.07
2022-10-19T18:18:58.737Z,70.97
2022-10-19T18:21:28.621Z,76.28
2022-10-19T18:23:57.062Z,63.92
2022-10-19T18:26:25.248Z,63.38
2022-10-19T18:28:53.000Z,62.67
2022-10-19T18:31:25.105Z,66.57
2022-10-19T18:33:57.665Z,66.20
2022-10-19T18:36:24.297Z,60.97
2022-10-19T18:38:52.397Z,71.38
2022-10-19T18:41:19.314Z,62.75
2022-10-19T18:43:54.057Z,68.47
2022-10-19T18:46:22.327Z,64.90
2022-10-19T18:48:49.760Z,70.43
2022-10-19T18:51:17.457Z,78.25
2022-10-19T18:53:45.211Z,76.32
2022-10-19T18:56:13.600Z,78.25
2022-10-19T18:58:40.122Z,85.00
2022-10-19T19:01:18.225Z,76.00
2022-10-19T19:03:46.821Z,79.82
2022-10-19T19:06:19.522Z,77.63
2022-10-19T19:08:46.234Z,85.05
2022-10-19T19:11:15.342Z,70.30
2022-10-19T19:13:46.874Z,77.45
2022-10-19T19:16:13.296Z,70.43
2022-10-19T19:18:39.716Z,74.20
2022-10-19T19:21:21.217Z,65.97
2022-10-19T19:23:48.412Z,65.68
2022-10-19T19:26:15.415Z,75.15
2022-10-19T19:28:44.221Z,70.13
2022-10-19T19:31:12.172Z,62.17
2022-10-19T19:33:38.904Z,70.00
2022-10-19T19:36:07.130Z,72.32
2022-10-19T19:38:33.926Z,75.30
2022-10-19T19:41:03.638Z,62.65
2022-10-19T19:43:32.569Z,65.07
2022-10-19T19:46:03.300Z,74.07
2022-10-19T19:48:32.768Z,80.20
2022-10-19T19:50:59.193Z,69.45
2022-10-19T19:53:25.633Z,65.72
2022-10-19T19:55:52.060Z,67.70
2022-10-19T19:58:18.924Z,73.70
2022-10-19T20:00:46.407Z,73.57
2022-10-19T20:03:13.567Z,76.57
2022-10-19T20:05:40.802Z,72.95
2022-10-19T20:08:07.962Z,70.63
2022-10-19T20:10:39.022Z,72.43
2022-10-19T20:15:31.955Z,73.95
2022-10-19T20:17:58.397Z,79.25
2022-10-19T20:20:24.802Z,69.68
2022-10-19T20:22:51.258Z,75.65
2022-10-19T20:25:17.779Z,78.20
2022-10-19T20:27:44.238Z,73.25
2022-10-19T20:30:11.049Z,82.78
2022-10-19T20:32:38.047Z,72.93
2022-10-19T20:35:05.022Z,80.57
2022-10-19T20:37:31.581Z,82.03
2022-10-19T20:39:58.048Z,78.95
2022-10-19T20:42:24.526Z,74.80
2022-10-19T20:44:51.030Z,89.10
2022-10-19T20:47:17.519Z,75.25
2022-10-19T20:49:43.960Z,73.30
2022-10-19T20:52:10.386Z,72.03
2022-10-19T20:54:37.122Z,76.05
2022-10-19T20:57:03.672Z,81.45
2022-10-19T20:59:31.455Z,74.03
2022-10-19T21:01:57.981Z,87.45
2022-10-19T21:04:25.618Z,91.00
2022-10-19T21:06:52.438Z,82.85
2022-10-19T21:09:21.377Z,83.28
2022-10-19T21:11:50.182Z,80.88
2022-10-19T21:14:25.283Z,88.55
2022-10-19T21:16:56.772Z,85.75
2022-10-19T21:19:25.397Z,83.63
2022-10-19T21:21:55.455Z,79.63
2022-10-19T21:24:24.615Z,94.45
2022-10-19T21:29:23.029Z,87.85
2022-10-19T21:31:52.127Z,82.65
2022-10-19T21:34:27.033Z,93.70
2022-10-19T21:36:53.903Z,94.47
2022-10-19T21:39:21.142Z,91.72
2022-10-19T21:41:48.480Z,92.45
2022-10-19T21:44:16.992Z,85.97
2022-10-19T21:46:44.060Z,90.47
2022-10-19T21:49:11.975Z,92.32
2022-10-19T21:51:50.989Z,85.00
2022-10-19T21:54:21.340Z,82.30
2022-10-19T21:56:48.383Z,90.15
2022-10-19T21:59:15.655Z,81.32
2022-10-19T22:01:42.318Z,81.25
2022-10-19T22:04:14.978Z,68.65
2022-10-19T22:06:42.463Z,70.93
2022-10-19T22:09:11.719Z,80.28
2022-10-19T22:11:38.309Z,80.50
2022-10-19T22:14:04.765Z,76.38
2022-10-19T22:16:36.793Z,71.18
2022-10-19T22:19:05.285Z,85.82
2022-10-19T22:21:33.614Z,65.88
2022-10-19T22:24:06.569Z,77.85
2022-10-19T22:26:35.807Z,93.20
2022-10-19T22:29:03.993Z,69.00
2022-10-19T22:31:31.501Z,74.15
2022-10-19T22:34:00.076Z,70.97
2022-10-19T22:36:26.531Z,72.78
2022-10-19T22:38:52.997Z,84.00
2022-10-19T22:41:19.385Z,66.63
2022-10-19T22:44:41.875Z,76.13
2022-10-19T22:48:04.674Z,69.55
2022-10-19T22:51:27.558Z,69.40
2022-10-19T22:53:54.058Z,68.40
2022-10-19T22:56:20.601Z,61.38
2022-10-19T22:58:47.047Z,70.53
2022-10-19T23:01:15.310Z,60.65
2022-10-19T23:03:42.005Z,67.35
2022-10-19T23:06:11.469Z,70.18
2022-10-19T23:08:39.238Z,61.03
2022-10-19T23:11:06.237Z,92.00
2022-10-19T23:13:32.728Z,64.10
2022-10-19T23:15:59.259Z,73.60
2022-10-19T23:18:25.707Z,63.45
2022-10-19T23:21:01.494Z,60.00
2022-10-19T23:23:29.321Z,58.67
2022-10-19T23:26:04.038Z,51.35
2022-10-19T23:28:31.977Z,56.50
2022-10-19T23:30:59.288Z,65.55
2022-10-19T23:33:26.340Z,60.17
2022-10-19T23:35:52.779Z,55.20
2022-10-19T23:38:19.186Z,66.13
2022-10-19T23:40:45.636Z,56.40
2022-10-19T23:43:12.062Z,59.40
2022-10-19T23:45:39.335Z,57.63
2022-10-19T23:48:05.832Z,60.75
2022-10-19T23:50:32.241Z,62.97
2022-10-19T23:52:58.676Z,57.50
2022-10-19T23:55:25.092Z,60.25
2022-10-19T23:57:51.501Z,61.55
